Time;durP1;ratioP1;P1;durP2;ratioP2;P2;SDS_P1;SDS_P2;PMS_P1;PMS_P2;Temp;Humidity;BMP_temperature;BMP_pressure;BME280_temperature;BME280_humidity;BME280_pressure;Samples;Min_cycle;Max_cycle;Signal;HPM_P1;HPM_P2
2022/03/01 00:02:14;;;;;;;2.92;1.85;;;18.40;39.50;;;;;;5055395;28;20213;-82
2022/03/01 00:04:39;;;;;;;4.40;1.88;;;18.40;39.80;;;;;;5054096;28;20158;-82
2022/03/01 00:07:07;;;;;;;3.67;2.05;;;18.40;39.70;;;;;;5054086;28;20166;-82
2022/03/01 00:09:35;;;;;;;2.60;1.70;;;18.30;39.70;;;;;;5054059;28;20154;-82
2022/03/01 00:12:02;;;;;;;3.20;1.90;;;18.30;39.60;;;;;;5036546;28;20629;-82
2022/03/01 00:14:30;;;;;;;3.22;1.70;;;18.30;39.80;;;;;;5053148;28;20324;-82
2022/03/01 00:16:58;;;;;;;2.00;1.80;;;18.30;39.80;;;;;;5053343;28;20182;-83
2022/03/01 00:19:27;;;;;;;3.00;1.70;;;18.40;39.70;;;;;;5053290;28;20186;-82
2022/03/01 00:21:56;;;;;;;2.90;1.77;;;18.30;39.80;;;;;;5053146;28;20217;-82
2022/03/01 00:24:23;;;;;;;2.40;1.80;;;18.30;39.90;;;;;;5053156;28;20322;-82
2022/03/01 00:26:48;;;;;;;3.28;1.73;;;18.30;40.00;;;;;;5053025;28;20185;-82
2022/03/01 00:29:14;;;;;;;3.65;2.08;;;18.30;39.70;;;;;;5053873;28;20249;-82
2022/03/01 00:31:40;;;;;;;3.10;1.90;;;18.30;40.10;;;;;;5053431;28;20225;-82
2022/03/01 00:34:05;;;;;;;3.00;1.90;;;18.20;40.20;;;;;;5053632;28;20170;-82
2022/03/01 00:36:31;;;;;;;2.28;2.05;;;18.20;40.00;;;;;;5053759;28;20170;-82
2022/03/01 00:38:57;;;;;;;2.95;1.95;;;18.20;40.30;;;;;;5053437;28;20166;-82
2022/03/01 00:41:22;;;;;;;2.72;1.90;;;18.20;40.70;;;;;;5036799;28;20177;-82
2022/03/01 00:43:48;;;;;;;3.97;2.00;;;18.20;40.30;;;;;;5054890;28;20189;-82
2022/03/01 00:46:13;;;;;;;2.20;1.50;;;18.20;40.40;;;;;;5053983;28;20165;-82
2022/03/01 00:48:41;;;;;;;2.60;1.83;;;18.20;40.20;;;;;;5053301;28;20158;-82
2022/03/01 00:51:08;;;;;;;2.85;2.05;;;18.20;40.30;;;;;;5035458;28;20182;-82
2022/03/01 00:53:35;;;;;;;2.15;1.75;;;18.20;40.30;;;;;;5035804;28;20180;-82
2022/03/01 00:56:04;;;;;;;2.45;1.88;;;18.20;40.30;;;;;;5052388;28;20247;-82
2022/03/01 00:58:32;;;;;;;2.67;1.80;;;18.20;40.30;;;;;;5035801;28;20193;-82
2022/03/01 01:00:59;;;;;;;5.82;1.85;;;18.20;40.50;;;;;;5035929;28;20197;-82
2022/03/01 01:03:26;;;;;;;2.40;1.92;;;18.20;40.40;;;;;;5052383;28;20221;-82
2022/03/01 01:05:52;;;;;;;2.33;1.90;;;18.20;40.60;;;;;;5052633;28;20217;-82
2022/03/01 01:08:18;;;;;;;2.03;1.50;;;18.20;40.50;;;;;;5053414;28;20158;-82
2022/03/01 01:10:43;;;;;;;2.38;1.83;;;18.20;40.50;;;;;;5052855;28;20161;-82
2022/03/01 01:13:09;;;;;;;2.10;1.63;;;18.10;40.50;;;;;;5052915;28;20158;-82
2022/03/01 01:15:34;;;;;;;2.95;1.70;;;18.20;40.60;;;;;;5052891;28;20162;-82
2022/03/01 01:18:00;;;;;;;2.47;1.73;;;18.10;40.70;;;;;;5054572;28;20248;-82
2022/03/01 01:20:26;;;;;;;2.55;1.65;;;18.10;40.50;;;;;;5054062;28;20177;-81
2022/03/01 01:22:52;;;;;;;4.20;1.90;;;18.10;40.80;;;;;;5052997;28;20197;-82
2022/03/01 01:25:21;;;;;;;2.72;1.70;;;18.10;41.00;;;;;;5052572;28;20173;-82
2022/03/01 01:27:50;;;;;;;4.25;1.85;;;18.10;41.00;;;;;;5052666;28;20629;-82
2022/03/01 01:30:17;;;;;;;2.38;1.70;;;18.10;41.00;;;;;;5034842;28;20169;-82
2022/03/01 01:32:48;;;;;;;3.85;1.60;;;18.10;40.90;;;;;;5018524;28;20221;-83
2022/03/01 01:35:17;;;;;;;2.83;1.85;;;18.10;40.70;;;;;;5051558;28;20200;-82
2022/03/01 01:37:45;;;;;;;3.10;1.67;;;18.10;40.80;;;;;;5051762;28;20182;-82
2022/03/01 01:40:15;;;;;;;4.25;1.90;;;18.10;41.60;;;;;;5034955;28;20243;-82
2022/03/01 01:42:43;;;;;;;2.95;1.70;;;18.10;41.00;;;;;;5051630;28;20225;-82
2022/03/01 01:45:11;;;;;;;2.20;2.00;;;18.00;41.10;;;;;;5051797;28;20240;-82
2022/03/01 01:47:39;;;;;;;2.15;1.95;;;18.00;41.20;;;;;;5035336;28;20182;-82
2022/03/01 01:50:08;;;;;;;2.45;1.73;;;18.00;41.10;;;;;;5018646;28;20250;-82
2022/03/01 01:52:33;;;;;;;2.30;1.77;;;18.00;40.80;;;;;;5051772;28;20240;-82
2022/03/01 01:54:59;;;;;;;2.60;1.98;;;18.00;41.20;;;;;;5052101;28;20554;-82
2022/03/01 01:57:25;;;;;;;3.30;1.85;;;18.00;41.00;;;;;;5052420;28;20151;-82
2022/03/01 01:59:51;;;;;;;1.75;1.58;;;18.00;41.10;;;;;;5035981;28;20536;-82
2022/03/01 02:02:19;;;;;;;2.58;1.77;;;18.00;41.00;;;;;;5051369;28;20185;-82
2022/03/01 02:04:44;;;;;;;3.80;1.70;;;18.10;41.30;;;;;;5052125;28;20165;-82
2022/03/01 02:07:12;;;;;;;1.70;1.60;;;18.00;41.40;;;;;;5053255;28;20154;-82
2022/03/01 02:09:39;;;;;;;1.67;1.58;;;18.00;41.40;;;;;;5051335;28;20210;-82
2022/03/01 02:12:05;;;;;;;2.38;1.85;;;18.00;41.40;;;;;;5051352;28;20680;-82
2022/03/01 02:14:33;;;;;;;2.40;1.58;;;18.00;41.20;;;;;;5052001;28;20177;-82
2022/03/01 02:16:59;;;;;;;2.53;1.70;;;18.00;41.50;;;;;;5051270;28;20224;-83
2022/03/01 02:19:26;;;;;;;2.95;1.83;;;18.00;41.00;;;;;;5052068;28;20154;-82
2022/03/01 02:21:55;;;;;;;2.85;1.98;;;18.00;41.40;;;;;;5034389;28;20638;-82
2022/03/01 02:24:24;;;;;;;4.13;1.90;;;18.00;41.40;;;;;;5034817;28;20193;-82
2022/03/01 02:26:55;;;;;;;1.73;1.58;;;18.00;41.40;;;;;;5034691;28;20637;-82
2022/03/01 02:29:22;;;;;;;1.73;1.63;;;18.00;41.30;;;;;;5035358;28;20173;-82
2022/03/01 02:31:47;;;;;;;2.10;1.67;;;18.00;41.40;;;;;;5041346;28;20699;-82
2022/03/01 02:34:13;;;;;;;2.10;1.50;;;18.00;41.40;;;;;;5071896;28;20150;-82
2022/03/01 02:36:39;;;;;;;3.33;1.80;;;18.00;41.50;;;;;;5071864;28;20181;-82
2022/03/01 02:39:05;;;;;;;2.20;1.60;;;18.00;41.60;;;;;;5072994;28;20203;-82
2022/03/01 02:41:31;;;;;;;1.88;1.70;;;17.90;42.30;;;;;;5071770;28;20197;-82
2022/03/01 02:43:58;;;;;;;1.60;1.50;;;18.00;41.50;;;;;;5073075;28;20192;-83
2022/03/01 02:46:24;;;;;;;1.70;1.50;;;18.00;41.60;;;;;;5021073;28;20264;-82
2022/03/01 02:48:51;;;;;;;3.30;1.80;;;17.90;41.60;;;;;;5054887;28;20627;-82
2022/03/01 02:51:17;;;;;;;1.83;1.58;;;17.90;41.60;;;;;;5021152;28;20200;-82
2022/03/01 02:53:43;;;;;;;2.15;1.88;;;17.90;41.60;;;;;;5072884;28;20154;-82
2022/03/01 02:56:10;;;;;;;2.20;1.77;;;17.90;41.70;;;;;;5054911;28;20211;-82
2022/03/01 02:58:35;;;;;;;2.20;1.67;;;17.90;41.60;;;;;;5037518;28;20185;-82
2022/03/01 03:01:03;;;;;;;1.70;1.58;;;17.80;41.80;;;;;;5072837;28;20161;-82
2022/03/01 03:03:28;;;;;;;2.38;1.50;;;17.90;41.90;;;;;;5020946;28;20575;-83
2022/03/01 03:05:54;;;;;;;1.70;1.60;;;17.90;41.80;;;;;;5054853;28;20150;-82
2022/03/01 03:08:21;;;;;;;3.03;1.77;;;17.90;41.80;;;;;;5072729;28;20523;-82
2022/03/01 03:10:49;;;;;;;1.77;1.52;;;17.90;41.70;;;;;;5037563;28;20185;-82
2022/03/01 03:13:16;;;;;;;2.03;1.60;;;18.00;41.80;;;;;;5053982;28;20181;-82
2022/03/01 03:15:44;;;;;;;1.65;1.40;;;17.90;41.90;;;;;;5059776;28;20193;-83
2022/03/01 03:18:11;;;;;;;2.55;1.90;;;17.90;41.70;;;;;;5046840;28;20185;-82
2022/03/01 03:20:38;;;;;;;2.72;1.80;;;17.90;41.70;;;;;;5045878;28;20181;-82
2022/03/01 03:23:05;;;;;;;2.25;1.88;;;18.00;41.90;;;;;;5063512;28;20213;-82
2022/03/01 03:25:35;;;;;;;1.90;1.50;;;17.90;41.90;;;;;;5033004;28;20192;-82
2022/03/01 03:28:02;;;;;;;2.10;1.60;;;17.90;41.90;;;;;;5050197;28;20181;-82
2022/03/01 03:30:32;;;;;;;1.50;1.40;;;17.90;41.90;;;;;;5049036;28;20192;-83
2022/03/01 03:32:58;;;;;;;1.67;1.58;;;17.90;41.80;;;;;;5049507;28;20233;-81
2022/03/01 03:35:24;;;;;;;1.90;1.70;;;17.90;41.90;;;;;;5076864;28;20148;-82
2022/03/01 03:37:50;;;;;;;2.55;1.75;;;17.90;41.70;;;;;;5059857;28;20613;-82
2022/03/01 03:40:16;;;;;;;1.63;1.45;;;17.90;41.90;;;;;;5060039;28;20255;-82
2022/03/01 03:42:46;;;;;;;1.90;1.70;;;17.90;41.90;;;;;;5078711;28;20629;-82
2022/03/01 03:45:12;;;;;;;1.83;1.60;;;17.80;41.90;;;;;;5041440;28;20182;-82
2022/03/01 03:47:39;;;;;;;2.28;1.70;;;17.80;42.10;;;;;;5057768;28;20662;-82
2022/03/01 03:50:05;;;;;;;2.80;1.63;;;17.80;42.30;;;;;;5057863;28;20154;-82
2022/03/01 03:52:31;;;;;;;2.25;1.60;;;17.80;42.00;;;;;;5057862;28;20643;-82
2022/03/01 03:54:57;;;;;;;1.88;1.45;;;17.80;42.10;;;;;;5074369;28;20196;-82
2022/03/01 03:57:23;;;;;;;3.25;1.77;;;17.80;42.20;;;;;;5075758;28;20161;-82
2022/03/01 03:59:48;;;;;;;1.67;1.38;;;17.80;42.10;;;;;;5074376;28;20162;-81
2022/03/01 04:02:14;;;;;;;1.73;1.63;;;17.90;42.10;;;;;;5075406;28;20186;-82
2022/03/01 04:04:40;;;;;;;2.70;1.48;;;17.80;42.20;;;;;;5057640;28;20167;-82
2022/03/01 04:07:07;;;;;;;2.63;1.83;;;17.80;42.10;;;;;;5075192;28;20177;-82
2022/03/01 04:09:34;;;;;;;2.92;1.52;;;17.80;42.20;;;;;;5074229;28;20153;-82
2022/03/01 04:12:00;;;;;;;1.90;1.70;;;17.80;42.20;;;;;;5057838;28;20609;-82
2022/03/01 04:14:25;;;;;;;2.70;1.55;;;17.80;42.30;;;;;;5057375;28;20176;-82
2022/03/01 04:16:51;;;;;;;2.75;1.75;;;17.80;42.10;;;;;;5075211;28;20154;-82
2022/03/01 04:19:17;;;;;;;2.70;1.73;;;17.80;42.30;;;;;;5040471;28;20214;-81
2022/03/01 04:21:43;;;;;;;1.95;1.58;;;17.80;42.20;;;;;;5057196;28;20185;-82
2022/03/01 04:24:08;;;;;;;1.65;1.50;;;17.80;42.30;;;;;;5057347;28;20156;-82
2022/03/01 04:26:34;;;;;;;2.75;1.70;;;17.80;42.30;;;;;;5072984;28;20154;-82
2022/03/01 04:29:00;;;;;;;3.00;1.40;;;17.80;42.20;;;;;;5057100;28;20176;-82
2022/03/01 04:31:25;;;;;;;1.70;1.60;;;17.80;42.10;;;;;;5056898;28;20221;-82
2022/03/01 04:33:54;;;;;;;1.48;1.38;;;17.80;42.20;;;;;;5057066;28;20154;-82
2022/03/01 04:36:19;;;;;;;2.33;1.63;;;17.80;42.30;;;;;;5073657;28;20158;-82
2022/03/01 04:38:45;;;;;;;1.70;1.60;;;17.80;42.60;;;;;;5073650;28;20211;-82
2022/03/01 04:41:11;;;;;;;2.00;1.52;;;17.80;42.60;;;;;;5074677;28;20616;-82
2022/03/01 04:43:39;;;;;;;1.75;1.50;;;17.70;42.40;;;;;;5056659;28;20193;-82
2022/03/01 04:46:04;;;;;;;1.70;1.60;;;17.80;42.40;;;;;;5039512;28;20181;-82
2022/03/01 04:48:30;;;;;;;3.25;1.75;;;17.80;42.60;;;;;;5056514;28;20210;-82
2022/03/01 04:50:56;;;;;;;1.83;1.60;;;17.80;42.30;;;;;;5057117;28;20162;-82
2022/03/01 04:53:21;;;;;;;2.15;1.50;;;17.80;42.30;;;;;;5040294;28;20165;-82
2022/03/01 04:55:47;;;;;;;1.67;1.38;;;17.80;42.30;;;;;;5039895;28;20161;-82
2022/03/01 04:58:13;;;;;;;1.63;1.40;;;17.80;42.40;;;;;;5073463;28;20608;-82
2022/03/01 05:00:38;;;;;;;2.38;1.73;;;17.80;42.60;;;;;;5073110;28;20161;-82
2022/03/01 05:03:04;;;;;;;2.60;1.63;;;17.70;42.40;;;;;;5056438;28;20201;-82
2022/03/01 05:05:30;;;;;;;1.85;1.55;;;17.80;42.40;;;;;;5074092;28;20153;-82
2022/03/01 05:07:55;;;;;;;2.97;1.75;;;17.70;42.70;;;;;;5056342;28;20185;-82
2022/03/01 05:10:21;;;;;;;2.42;2.08;;;17.70;42.50;;;;;;5056410;28;20156;-82
2022/03/01 05:12:49;;;;;;;2.40;1.75;;;17.70;42.60;;;;;;5072940;28;20165;-82
2022/03/01 05:15:17;;;;;;;1.80;1.58;;;17.70;42.50;;;;;;5056070;28;20197;-82
2022/03/01 05:17:44;;;;;;;1.90;1.55;;;17.70;42.40;;;;;;5038804;28;20230;-82
2022/03/01 05:20:13;;;;;;;1.60;1.50;;;17.70;42.60;;;;;;5038764;28;20205;-82
2022/03/01 05:22:41;;;;;;;2.38;1.77;;;17.80;43.10;;;;;;5038976;28;20308;-82
2022/03/01 05:25:09;;;;;;;1.55;1.45;;;17.70;42.30;;;;;;5022270;28;20272;-81
2022/03/01 05:27:36;;;;;;;1.88;1.60;;;17.80;42.00;;;;;;5056343;28;20146;-81
2022/03/01 05:30:02;;;;;;;2.05;1.40;;;17.80;41.30;;;;;;5055964;28;20197;-82
2022/03/01 05:32:27;;;;;;;2.17;1.60;;;17.90;41.30;;;;;;5072358;28;20765;-82
2022/03/01 05:34:53;;;;;;;1.85;1.40;;;18.00;40.70;;;;;;5055752;28;20169;-82
2022/03/01 05:37:20;;;;;;;2.17;1.55;;;18.00;41.00;;;;;;5055541;28;20169;-82
2022/03/01 05:39:45;;;;;;;2.65;1.52;;;18.10;40.90;;;;;;5072612;28;20286;-82
2022/03/01 05:42:11;;;;;;;1.60;1.30;;;18.00;41.00;;;;;;5072382;28;20268;-82
2022/03/01 05:44:37;;;;;;;1.95;1.50;;;18.10;40.30;;;;;;5055754;28;20193;-82
2022/03/01 05:47:03;;;;;;;1.73;1.63;;;18.10;40.70;;;;;;5055835;28;20153;-82
2022/03/01 05:49:28;;;;;;;1.77;1.35;;;18.10;40.50;;;;;;5073611;28;20153;-81
2022/03/01 05:51:54;;;;;;;2.17;1.52;;;18.10;40.40;;;;;;5072580;28;20184;-82
2022/03/01 05:54:19;;;;;;;2.30;1.45;;;18.10;40.30;;;;;;5072225;28;20182;-82
2022/03/01 05:56:45;;;;;;;2.45;1.52;;;18.10;40.40;;;;;;5073569;28;20158;-82
2022/03/01 05:59:10;;;;;;;2.15;1.70;;;18.10;39.90;;;;;;5055796;28;20161;-82
2022/03/01 06:01:36;;;;;;;1.50;1.40;;;18.10;40.20;;;;;;5057679;28;20168;-83
2022/03/01 06:04:02;;;;;;;1.52;1.40;;;18.10;39.50;;;;;;5059897;28;20176;-82
2022/03/01 06:06:28;;;;;;;1.90;1.52;;;18.20;39.50;;;;;;5076707;28;20691;-83
2022/03/01 06:08:53;;;;;;;1.67;1.30;;;18.10;39.40;;;;;;5059572;28;20160;-82
2022/03/01 06:11:20;;;;;;;2.45;1.65;;;18.30;39.10;;;;;;5059239;28;20540;-82
2022/03/01 06:13:45;;;;;;;1.52;1.40;;;18.20;39.30;;;;;;5075857;28;20161;-82
2022/03/01 06:16:12;;;;;;;2.03;1.55;;;18.30;39.20;;;;;;5075667;28;20202;-82
2022/03/01 06:18:37;;;;;;;1.50;1.40;;;18.20;39.00;;;;;;5058846;28;20206;-82
2022/03/01 06:21:03;;;;;;;1.95;1.55;;;18.20;38.90;;;;;;5042283;28;20188;-82
2022/03/01 06:23:30;;;;;;;1.88;1.52;;;18.30;38.70;;;;;;5075259;28;20520;-81
2022/03/01 06:25:55;;;;;;;1.73;1.63;;;18.30;38.60;;;;;;5075313;28;20177;-81
2022/03/01 06:28:21;;;;;;;1.67;1.55;;;18.30;38.50;;;;;;5075483;28;20612;-82
2022/03/01 06:30:47;;;;;;;1.65;1.40;;;18.30;38.50;;;;;;5075175;28;20184;-82
2022/03/01 06:33:18;;;;;;;1.52;1.42;;;18.30;38.50;;;;;;5073599;28;20220;-83
2022/03/01 06:35:45;;;;;;;1.45;1.30;;;18.30;38.20;;;;;;5080579;28;20589;-83
2022/03/01 06:38:15;;;;;;;1.42;1.33;;;18.30;38.10;;;;;;5061403;28;20157;-82
2022/03/01 06:40:42;;;;;;;1.65;1.23;;;18.30;38.20;;;;;;5061457;28;20150;-82
2022/03/01 06:43:08;;;;;;;1.85;1.55;;;18.30;38.20;;;;;;5058258;28;20205;-81
2022/03/01 06:45:34;;;;;;;2.10;1.52;;;18.30;37.70;;;;;;5042631;28;20207;-81
2022/03/01 06:48:02;;;;;;;1.70;1.50;;;18.30;37.80;;;;;;5078326;28;20141;-83
2022/03/01 06:50:47;;;;;;;1.83;1.52;;;18.40;37.70;;;;;;5083342;28;20206;-80
2022/03/01 06:53:17;;;;;;;1.98;1.30;;;18.30;37.40;;;;;;5083210;28;20189;-83
2022/03/01 06:56:03;;;;;;;1.73;1.42;;;18.40;37.80;;;;;;5082074;28;20260;-80
2022/03/01 06:58:32;;;;;;;1.75;1.50;;;18.40;38.00;;;;;;5040745;28;20280;-81
2022/03/01 07:01:17;;;;;;;1.90;1.50;;;18.30;37.60;;;;;;5020185;28;20196;-80
2022/03/01 07:04:03;;;;;;;1.98;1.52;;;18.30;37.60;;;;;;5000502;28;20249;-81
2022/03/01 07:06:49;;;;;;;1.77;1.48;;;18.40;37.70;;;;;;4978111;28;20183;-81
2022/03/01 07:09:34;;;;;;;2.15;1.75;;;18.30;37.60;;;;;;4975000;28;20184;-81
2022/03/01 07:12:20;;;;;;;1.75;1.40;;;18.30;37.20;;;;;;4921016;29;20186;-82
2022/03/01 07:15:06;;;;;;;1.88;1.52;;;18.30;37.40;;;;;;4901912;29;20330;-81
2022/03/01 07:17:51;;;;;;;1.50;1.40;;;18.30;37.40;;;;;;4896106;29;20194;-80
2022/03/01 07:20:37;;;;;;;2.13;1.58;;;18.40;37.10;;;;;;4847522;29;20179;-81
2022/03/01 07:23:22;;;;;;;1.95;1.75;;;18.40;37.60;;;;;;4829623;29;20224;-81
2022/03/01 07:25:48;;;;;;;2.10;1.63;;;18.40;36.90;;;;;;4833241;29;20220;-81
2022/03/01 07:28:14;;;;;;;1.85;1.50;;;18.40;36.80;;;;;;4830581;29;20223;-80
2022/03/01 07:30:39;;;;;;;1.60;1.50;;;18.40;36.90;;;;;;4849223;29;20588;-81
2022/03/01 07:33:05;;;;;;;1.52;1.40;;;18.40;36.60;;;;;;4849159;29;20239;-82
2022/03/01 07:35:31;;;;;;;3.63;1.67;;;18.50;36.50;;;;;;4864513;29;20191;-81
2022/03/01 07:37:56;;;;;;;3.47;1.92;;;18.50;36.20;;;;;;4891900;29;20668;-82
2022/03/01 07:40:42;;;;;;;2.85;1.67;;;18.50;36.20;;;;;;4898792;29;20247;-82
2022/03/01 07:43:28;;;;;;;2.95;1.73;;;18.50;36.30;;;;;;4963917;28;20224;-82
2022/03/01 07:45:53;;;;;;;1.95;1.42;;;18.50;36.50;;;;;;4941993;28;20180;-81
2022/03/01 07:48:39;;;;;;;2.30;1.67;;;18.50;36.40;;;;;;4974725;28;20187;-81
2022/03/01 07:51:22;;;;;;;2.38;1.60;;;18.50;36.50;;;;;;4936525;28;20192;-82
2022/03/01 07:53:48;;;;;;;1.80;1.70;;;18.60;36.30;;;;;;5017251;28;20181;-82
2022/03/01 07:56:21;;;;;;;3.65;1.90;;;18.60;36.30;;;;;;5042686;28;20526;-80
2022/03/01 07:59:02;;;;;;;1.88;1.67;;;18.50;36.20;;;;;;5042677;28;20181;-81
2022/03/01 08:01:27;;;;;;;1.95;1.65;;;18.60;36.20;;;;;;5039548;28;20181;-81
2022/03/01 08:03:53;;;;;;;1.67;1.58;;;18.60;36.10;;;;;;5074504;28;20223;-81
2022/03/01 08:06:19;;;;;;;2.35;1.90;;;18.60;35.90;;;;;;5043079;28;20260;-80
2022/03/01 08:08:56;;;;;;;2.33;1.77;;;18.60;35.90;;;;;;5063885;28;20180;-81
2022/03/01 08:11:34;;;;;;;2.03;1.70;;;18.60;35.90;;;;;;5040657;28;20204;-81
2022/03/01 08:14:11;;;;;;;2.97;1.67;;;18.60;35.80;;;;;;5040735;28;20307;-81
2022/03/01 08:16:47;;;;;;;1.77;1.58;;;18.60;35.70;;;;;;5057104;28;20188;-81
2022/03/01 08:19:23;;;;;;;3.08;1.77;;;18.60;35.70;;;;;;5040064;28;20545;-81
2022/03/01 08:21:59;;;;;;;2.78;1.83;;;18.70;35.50;;;;;;5023438;28;20215;-80
2022/03/01 08:24:33;;;;;;;2.55;1.80;;;18.70;35.40;;;;;;5023508;28;20234;-81
2022/03/01 08:27:08;;;;;;;3.67;2.00;;;18.70;35.40;;;;;;5039519;28;20181;-80
2022/03/01 08:29:42;;;;;;;2.67;2.20;;;18.70;35.30;;;;;;5056658;28;20196;-81
2022/03/01 08:32:07;;;;;;;2.55;1.90;;;18.70;35.00;;;;;;5052964;28;20229;-81
2022/03/01 08:34:41;;;;;;;2.25;1.90;;;18.80;35.10;;;;;;5054203;28;20174;-81
2022/03/01 08:37:14;;;;;;;2.45;1.90;;;18.70;35.10;;;;;;5036439;28;20220;-82
2022/03/01 08:39:40;;;;;;;2.28;2.08;;;18.70;35.10;;;;;;5021127;28;20178;-83
2022/03/01 08:42:05;;;;;;;5.25;2.15;;;18.60;35.10;;;;;;5055151;28;20668;-83
2022/03/01 08:44:31;;;;;;;2.28;1.80;;;18.70;35.10;;;;;;5056297;28;20518;-84
2022/03/01 08:46:57;;;;;;;2.45;2.13;;;18.70;34.80;;;;;;5053993;28;20575;-82
2022/03/01 08:49:40;;;;;;;2.85;1.75;;;18.80;34.70;;;;;;5055341;28;20154;-84
2022/03/01 08:52:20;;;;;;;2.50;1.95;;;18.80;34.80;;;;;;5052865;28;20274;-84
2022/03/01 08:54:46;;;;;;;2.65;2.15;;;18.80;34.60;;;;;;5004054;28;20575;-82
2022/03/01 08:57:11;;;;;;;2.88;1.92;;;18.80;34.40;;;;;;5053615;28;20589;-82
2022/03/01 08:59:37;;;;;;;2.80;2.03;;;18.90;34.40;;;;;;5020758;28;20253;-82
2022/03/01 09:02:03;;;;;;;3.40;2.10;;;18.90;34.60;;;;;;5054357;28;20198;-84
2022/03/01 09:04:29;;;;;;;2.22;2.00;;;18.90;34.50;;;;;;5021699;28;20170;-82
2022/03/01 09:06:54;;;;;;;4.75;2.20;;;18.90;34.40;;;;;;5055639;28;20677;-82
2022/03/01 09:09:27;;;;;;;5.90;2.20;;;19.00;34.60;;;;;;5054874;28;20154;-82
2022/03/01 09:11:53;;;;;;;3.67;2.10;;;19.00;34.40;;;;;;5004220;28;20181;-81
2022/03/01 09:14:19;;;;;;;2.50;2.30;;;19.10;34.40;;;;;;5038656;28;20208;-83
2022/03/01 09:16:44;;;;;;;3.72;2.17;;;19.00;34.30;;;;;;5021440;28;20165;-82
2022/03/01 09:19:14;;;;;;;2.92;2.20;;;19.00;34.10;;;;;;5055270;28;20184;-81
2022/03/01 09:21:44;;;;;;;2.80;2.50;;;19.00;34.50;;;;;;5003694;28;20588;-82
2022/03/01 09:24:09;;;;;;;2.97;2.35;;;19.10;34.60;;;;;;5035929;28;20258;-82
2022/03/01 09:26:39;;;;;;;8.43;2.33;;;19.10;34.50;;;;;;5038340;28;20182;-83
2022/03/01 09:29:08;;;;;;;3.30;2.20;;;19.10;34.60;;;;;;5036605;28;20193;-82
2022/03/01 09:31:33;;;;;;;6.03;2.38;;;19.10;34.50;;;;;;5024103;28;20666;-81
2022/03/01 09:34:02;;;;;;;3.15;2.35;;;19.00;34.30;;;;;;5056470;28;20252;-82
2022/03/01 09:36:31;;;;;;;5.55;2.38;;;19.10;34.10;;;;;;5055406;28;20185;-82
2022/03/01 09:38:59;;;;;;;2.70;2.10;;;19.10;33.90;;;;;;5039659;28;20201;-82
2022/03/01 09:41:28;;;;;;;2.88;2.22;;;19.10;34.00;;;;;;5039351;28;20245;-82
2022/03/01 09:43:58;;;;;;;3.63;2.60;;;19.20;34.10;;;;;;5039537;28;20655;-83
2022/03/01 09:46:24;;;;;;;4.55;2.55;;;19.20;34.00;;;;;;5058582;28;20194;-81
2022/03/01 09:48:49;;;;;;;4.28;2.45;;;19.20;34.40;;;;;;5057191;28;20239;-81
2022/03/01 09:51:15;;;;;;;3.17;2.25;;;19.10;34.50;;;;;;5073568;28;20172;-79
2022/03/01 09:53:41;;;;;;;4.85;2.42;;;19.10;34.10;;;;;;5073737;28;20185;-81
2022/03/01 09:56:08;;;;;;;4.95;2.22;;;19.20;33.90;;;;;;5057911;28;20150;-80
2022/03/01 09:58:33;;;;;;;3.45;2.58;;;19.20;33.90;;;;;;5045652;28;20189;-81
2022/03/01 10:00:59;;;;;;;5.15;2.40;;;19.20;34.10;;;;;;5061037;28;20157;-82
2022/03/01 10:03:27;;;;;;;4.03;2.38;;;19.20;34.20;;;;;;5060007;28;20555;-81
2022/03/01 10:06:11;;;;;;;3.55;2.30;;;19.20;34.30;;;;;;5062952;28;20154;-81
2022/03/01 10:08:36;;;;;;;5.15;2.60;;;19.20;34.00;;;;;;5050520;28;20200;-81
2022/03/01 10:11:07;;;;;;;5.03;2.58;;;19.30;34.10;;;;;;5042897;28;20177;-84
2022/03/01 10:13:34;;;;;;;5.80;3.03;;;19.30;34.10;;;;;;5060076;28;20628;-80
2022/03/01 10:16:16;;;;;;;5.13;2.90;;;19.30;34.30;;;;;;5039332;28;20173;-81
2022/03/01 10:18:43;;;;;;;4.45;2.90;;;19.30;34.20;;;;;;5054838;28;20174;-81
2022/03/01 10:21:14;;;;;;;7.57;2.65;;;19.40;34.60;;;;;;5058238;28;20181;-81
2022/03/01 10:23:47;;;;;;;4.50;2.38;;;19.30;34.60;;;;;;5038006;28;20228;-79
2022/03/01 10:26:18;;;;;;;3.90;2.40;;;19.30;34.20;;;;;;5073744;28;20154;-82
2022/03/01 10:28:44;;;;;;;6.15;2.90;;;19.40;34.10;;;;;;5073032;28;20157;-81
2022/03/01 10:31:13;;;;;;;3.90;2.53;;;19.40;34.00;;;;;;5057956;28;20150;-80
2022/03/01 10:33:51;;;;;;;5.50;2.60;;;19.40;33.70;;;;;;5061711;28;20269;-81
2022/03/01 10:36:20;;;;;;;4.18;2.60;;;19.50;33.80;;;;;;5056845;28;20161;-79
2022/03/01 10:38:54;;;;;;;5.63;2.38;;;19.50;33.60;;;;;;5056207;28;20173;-81
2022/03/01 10:41:23;;;;;;;4.03;2.60;;;19.50;34.00;;;;;;5080104;28;20184;-81
2022/03/01 10:43:54;;;;;;;5.22;2.60;;;19.50;33.70;;;;;;5080860;28;20192;-82
2022/03/01 10:46:24;;;;;;;5.80;2.85;;;19.40;33.60;;;;;;5063870;28;20206;-83
2022/03/01 10:49:00;;;;;;;4.13;3.00;;;19.40;34.00;;;;;;5063124;28;20211;-81
2022/03/01 10:51:26;;;;;;;5.43;3.00;;;19.30;34.40;;;;;;5079963;28;20255;-83
2022/03/01 10:53:52;;;;;;;5.60;2.97;;;19.30;34.60;;;;;;5061896;28;20227;-82
2022/03/01 10:56:18;;;;;;;5.60;2.80;;;19.30;34.30;;;;;;5078840;28;20196;-82
2022/03/01 10:58:44;;;;;;;4.82;2.88;;;19.30;34.40;;;;;;5097317;28;20156;-83
2022/03/01 11:01:10;;;;;;;5.88;2.97;;;19.40;34.40;;;;;;5079958;28;20153;-83
2022/03/01 11:03:36;;;;;;;7.25;2.92;;;19.40;34.80;;;;;;5058385;28;20664;-82
2022/03/01 11:06:02;;;;;;;7.70;2.80;;;19.40;34.40;;;;;;5095280;28;20218;-82
2022/03/01 11:08:33;;;;;;;11.77;2.90;;;19.30;34.90;;;;;;5061730;28;20187;-83
2022/03/01 11:11:00;;;;;;;14.90;2.90;;;19.30;34.50;;;;;;5062120;28;20245;-83
2022/03/01 11:13:25;;;;;;;12.32;3.63;;;19.30;34.50;;;;;;5080517;28;20187;-82
2022/03/01 11:16:11;;;;;;;8.13;2.88;;;19.30;34.60;;;;;;5060996;28;20598;-81
2022/03/01 11:19:11;;;;;;;7.60;2.65;;;19.30;34.60;;;;;;5081534;28;20504;-83
2022/03/01 11:21:40;;;;;;;13.10;3.22;;;19.30;35.00;;;;;;5090502;28;20537;-82
2022/03/01 11:24:06;;;;;;;7.32;2.90;;;19.20;34.80;;;;;;5074881;28;20646;-82
2022/03/01 11:26:36;;;;;;;11.43;3.13;;;19.30;34.40;;;;;;5056442;28;20178;-82
2022/03/01 11:29:10;;;;;;;7.43;3.03;;;19.20;35.10;;;;;;5060127;28;20170;-82
2022/03/01 11:31:36;;;;;;;11.00;3.15;;;19.20;34.60;;;;;;5055916;28;20680;-82
2022/03/01 11:34:14;;;;;;;9.15;3.40;;;19.30;34.70;;;;;;5041446;28;20181;-83
2022/03/01 11:36:48;;;;;;;7.13;3.13;;;19.20;35.00;;;;;;5052661;28;20172;-81
2022/03/01 11:39:17;;;;;;;10.48;3.08;;;19.30;34.60;;;;;;5038906;28;20181;-81
2022/03/01 11:41:49;;;;;;;7.70;3.30;;;19.20;35.00;;;;;;5038120;28;20247;-81
2022/03/01 11:44:19;;;;;;;12.30;3.13;;;19.20;34.90;;;;;;5066601;28;20697;-81
2022/03/01 11:46:46;;;;;;;14.18;3.13;;;19.20;34.90;;;;;;5029213;28;20174;-84
2022/03/01 11:49:13;;;;;;;9.80;3.10;;;19.20;34.80;;;;;;5058432;28;20170;-82
2022/03/01 11:51:44;;;;;;;8.23;3.28;;;19.30;34.40;;;;;;5037999;28;20180;-82
2022/03/01 11:54:11;;;;;;;7.82;3.00;;;19.20;34.40;;;;;;5054636;28;20175;-83
2022/03/01 11:56:38;;;;;;;8.48;3.00;;;19.20;34.40;;;;;;5074192;28;20215;-83
2022/03/01 11:59:05;;;;;;;9.43;3.42;;;19.30;34.60;;;;;;5037339;28;20162;-83
2022/03/01 12:01:34;;;;;;;8.88;3.40;;;19.30;34.70;;;;;;5072932;28;20187;-83
2022/03/01 12:04:02;;;;;;;8.68;3.03;;;19.20;35.00;;;;;;5040406;28;20182;-83
2022/03/01 12:06:29;;;;;;;6.82;3.30;;;19.20;35.20;;;;;;5022385;28;20205;-82
2022/03/01 12:08:57;;;;;;;6.75;3.05;;;19.20;34.50;;;;;;5038612;28;20644;-83
2022/03/01 12:11:41;;;;;;;6.00;3.25;;;19.20;34.40;;;;;;5039684;28;20169;-83
2022/03/01 12:14:11;;;;;;;5.25;3.30;;;19.10;34.50;;;;;;5037803;28;20662;-82
2022/03/01 12:16:41;;;;;;;8.93;3.28;;;19.20;34.70;;;;;;5038371;28;20159;-83
2022/03/01 12:19:11;;;;;;;8.05;3.22;;;19.20;34.60;;;;;;5005575;28;20588;-84
2022/03/01 12:21:40;;;;;;;8.75;3.20;;;19.10;34.60;;;;;;5038357;28;20528;-83
2022/03/01 12:24:17;;;;;;;6.20;2.95;;;19.20;35.00;;;;;;5021631;28;20190;-83
2022/03/01 12:26:47;;;;;;;9.15;2.90;;;19.20;34.60;;;;;;5020591;28;20251;-83
2022/03/01 12:29:22;;;;;;;7.60;2.92;;;19.20;33.70;;;;;;5021840;28;20189;-83
2022/03/01 12:32:04;;;;;;;7.25;2.92;;;19.30;34.10;;;;;;5004867;28;20228;-83
2022/03/01 12:34:40;;;;;;;8.60;3.00;;;19.30;34.20;;;;;;5032192;28;20177;-83
2022/03/01 12:37:08;;;;;;;7.63;3.10;;;19.30;33.90;;;;;;5077405;28;20187;-83
2022/03/01 12:39:42;;;;;;;6.22;3.20;;;19.40;34.60;;;;;;5078732;28;20150;-85
2022/03/01 12:42:14;;;;;;;10.77;3.45;;;19.40;34.00;;;;;;5027779;28;20258;-84
2022/03/01 12:44:42;;;;;;;8.18;3.17;;;19.40;34.10;;;;;;5045602;28;20212;-83
2022/03/01 12:47:12;;;;;;;7.18;3.47;;;19.30;34.20;;;;;;5061550;28;20170;-82
2022/03/01 12:49:41;;;;;;;6.15;3.10;;;19.30;34.50;;;;;;5057453;28;20250;-83
2022/03/01 12:52:16;;;;;;;5.00;3.30;;;19.20;34.50;;;;;;5039567;28;20181;-83
2022/03/01 12:54:47;;;;;;;4.25;3.30;;;19.20;34.50;;;;;;5025840;28;20187;-84